Pouce Coupe, Canada
Current Conditions -  °F | °C
As of 4:00 PM on Wednesday 22 Oct 2014 (Local Time) from CYDQ Reporting Station
Clear Clear  
Wind Chill: 55°   Ceiling: Unl
Heat Index: 55°   Visibility: 9mi
Dew Point: 34°   Wind: 14mph
Humidity: 44%   Direction: 260°W
Pressure: 29.48"   Gusts: NA
Location:  55.72°N, 120.13°W
Report Text: CYDQ 222200Z AUTO 26012KT 9SM CLR 13/01 A2948 RMK SLP998 DENSITY ALT 2900FT
Loading
Personal Weather Stations






























Interactive Weather Map
Tropical Storm Tracking
New forecast layout! Learn more

10-Day Weather Forecast

Advertisements
Track Severe Weather on mobile